Beniel, Spain
Current Conditions -  °F | °C
As of 4:00 PM on Friday 24 Oct 2014 (Local Time) from LELC Reporting Station
Clear Clear  
Wind Chill: 75°   Ceiling: Unl
Heat Index: 75°   Visibility: 6mi
Dew Point: 61°   Wind: 3mph
Humidity: 61%   Direction: 100°E
Pressure: 30.03"   Gusts: NA
Location:  38.05°N, 1°W
Report Text: LELC 241400Z 10003KT 050V140 CAVOK 24/16 Q1017 NOSIG
Loading
Personal Weather Stations






























Interactive Weather Map
Tropical Storm Tracking
New forecast layout! Learn more

10-Day Weather Forecast

Advertisements
Track Severe Weather on mobile